Terminal Aerodrome Forecast
Issued by NWS Goodland, KS

Home | Current Version | Previous Version | Text Only | Print | Product List | Glossary On
Versions: 1 2 3 4 5 6 7 8 9 10 11 12 13 14 15 16
000
FTUS43 KGLD 011258 AAA
TAFGLD
TAF AMD
KGLD 011258Z 0113/0212 35013G21KT 6SM BR OVC007
      TEMPO 0113/0115 4SM -RASN BR
     FM011700 01017G24KT P6SM BKN015 OVC020
     FM012100 02014G23KT P6SM OVC030
     FM020100 31006KT P6SM OVC045=

USA.gov is the U.S. government's official web portal to all federal, state and local government web resources and services.